Time;durP1;ratioP1;P1;durP2;ratioP2;P2;SDS_P1;SDS_P2;PMS_P1;PMS_P2;Temp;Humidity;BMP_temperature;BMP_pressure;BME280_temperature;BME280_humidity;BME280_pressure;Samples;Min_cycle;Max_cycle;Signal;HPM_P1;HPM_P2
2022/01/06 00:01:49;;;;;;;24.98;3.97;;;;;;;;;;4934300;28;20058;-83
2022/01/06 00:04:15;;;;;;;31.42;3.50;;;;;;;;;;4957401;28;20518;-83
2022/01/06 00:06:42;;;;;;;21.15;2.83;;;;;;;;;;4948212;28;20034;-83
2022/01/06 00:09:10;;;;;;;18.20;3.03;;;;;;;;;;4940501;28;20069;-83
2022/01/06 00:11:36;;;;;;;22.83;2.47;;;;;;;;;;4936280;28;20039;-83
2022/01/06 00:14:36;;;;;;;16.92;2.72;;;;;;;;;;4941649;28;20446;-83
2022/01/06 00:24:50;;;;;;;22.75;2.60;;;;;;;;;;4952335;28;20685;-83
2022/01/06 00:27:16;;;;;;;20.73;2.55;;;;;;;;;;4945971;28;20101;-83
2022/01/06 00:29:43;;;;;;;27.55;2.60;;;;;;;;;;4935250;28;20030;-83
2022/01/06 00:32:10;;;;;;;21.55;2.83;;;;;;;;;;4957253;28;20066;-83
2022/01/06 00:34:36;;;;;;;21.67;3.28;;;;;;;;;;4944240;28;20489;-83
2022/01/06 00:37:02;;;;;;;17.52;3.40;;;;;;;;;;4933025;28;20101;-83
2022/01/06 00:39:35;;;;;;;27.52;3.10;;;;;;;;;;4955507;28;20077;-84
2022/01/06 00:42:08;;;;;;;25.30;3.20;;;;;;;;;;4936274;28;20256;-83
2022/01/06 00:44:34;;;;;;;25.15;2.80;;;;;;;;;;4958020;28;20063;-83
2022/01/06 00:47:00;;;;;;;25.13;2.85;;;;;;;;;;4939227;28;20035;-83
2022/01/06 00:49:26;;;;;;;27.50;3.70;;;;;;;;;;4947435;28;20139;-83
2022/01/06 00:51:52;;;;;;;30.63;3.30;;;;;;;;;;4937778;28;20078;-83
2022/01/06 00:54:18;;;;;;;17.33;3.15;;;;;;;;;;4954606;28;20054;-83
2022/01/06 00:56:44;;;;;;;30.20;3.80;;;;;;;;;;4950961;28;20034;-83
2022/01/06 00:59:10;;;;;;;32.42;2.65;;;;;;;;;;4933684;28;20020;-83
2022/01/06 01:01:36;;;;;;;28.77;3.22;;;;;;;;;;4950726;28;20027;-83
2022/01/06 01:04:02;;;;;;;26.98;2.67;;;;;;;;;;4940249;28;20031;-83
2022/01/06 01:06:28;;;;;;;23.30;3.20;;;;;;;;;;4942162;28;20039;-83
2022/01/06 01:08:54;;;;;;;34.75;2.88;;;;;;;;;;4938720;28;20022;-83
2022/01/06 01:11:20;;;;;;;22.83;2.65;;;;;;;;;;4938764;28;20110;-83
2022/01/06 01:13:56;;;;;;;18.33;3.15;;;;;;;;;;4934909;28;20555;-83
2022/01/06 01:16:28;;;;;;;25.65;2.63;;;;;;;;;;4937476;28;20129;-83
2022/01/06 01:18:56;;;;;;;24.05;2.45;;;;;;;;;;4954020;28;20329;-82
2022/01/06 01:21:26;;;;;;;19.27;2.72;;;;;;;;;;4938991;28;20038;-83
2022/01/06 01:23:52;;;;;;;10.48;2.20;;;;;;;;;;4938318;28;20114;-83
2022/01/06 01:26:18;;;;;;;13.15;2.45;;;;;;;;;;4937501;28;20117;-83
2022/01/06 01:28:46;;;;;;;20.30;2.60;;;;;;;;;;4934136;28;20122;-82
2022/01/06 01:31:24;;;;;;;13.20;2.38;;;;;;;;;;4931221;28;20487;-83
2022/01/06 01:33:52;;;;;;;14.77;1.95;;;;;;;;;;4952132;28;20527;-83
2022/01/06 01:36:18;;;;;;;21.20;2.22;;;;;;;;;;4939082;28;20035;-83
2022/01/06 01:38:44;;;;;;;18.85;2.28;;;;;;;;;;4936944;28;20023;-83
2022/01/06 01:41:11;;;;;;;12.27;1.67;;;;;;;;;;4924829;28;20202;-83
2022/01/06 01:43:38;;;;;;;19.52;2.65;;;;;;;;;;4915259;29;20666;-83
2022/01/06 01:46:14;;;;;;;20.95;2.20;;;;;;;;;;4942723;29;20094;-83
2022/01/06 01:48:46;;;;;;;17.40;2.22;;;;;;;;;;4920722;28;20130;-83
2022/01/06 01:51:12;;;;;;;14.00;2.40;;;;;;;;;;4924615;29;20081;-83
2022/01/06 01:53:38;;;;;;;26.60;1.67;;;;;;;;;;4930701;28;20098;-83
2022/01/06 01:56:06;;;;;;;18.27;2.53;;;;;;;;;;4939840;28;20035;-83
2022/01/06 01:58:32;;;;;;;16.30;2.17;;;;;;;;;;4921701;29;20035;-83
2022/01/06 02:00:58;;;;;;;15.18;2.17;;;;;;;;;;4920300;29;20484;-83
2022/01/06 02:03:24;;;;;;;7.65;1.38;;;;;;;;;;4927443;29;20054;-83
2022/01/06 02:05:50;;;;;;;16.63;1.77;;;;;;;;;;4935968;28;20027;-83
2022/01/06 02:08:17;;;;;;;10.50;2.00;;;;;;;;;;4936071;28;20040;-83
2022/01/06 02:10:43;;;;;;;8.13;1.45;;;;;;;;;;4923691;29;20106;-83
2022/01/06 02:13:09;;;;;;;10.43;1.60;;;;;;;;;;4922007;29;20024;-83
2022/01/06 02:15:35;;;;;;;11.88;1.52;;;;;;;;;;4932729;28;20448;-83
2022/01/06 02:18:01;;;;;;;19.42;2.05;;;;;;;;;;4926463;29;20055;-83
2022/01/06 02:20:28;;;;;;;6.85;1.15;;;;;;;;;;4936467;28;20033;-83
2022/01/06 02:22:55;;;;;;;12.85;1.58;;;;;;;;;;4925906;28;20451;-82
2022/01/06 02:25:23;;;;;;;16.83;1.73;;;;;;;;;;4923552;29;20031;-83
2022/01/06 02:27:50;;;;;;;13.80;1.45;;;;;;;;;;4922457;29;20222;-84
2022/01/06 02:30:17;;;;;;;11.63;1.58;;;;;;;;;;4922674;29;20439;-82
2022/01/06 02:32:43;;;;;;;18.55;1.92;;;;;;;;;;4921880;28;20094;-82
2022/01/06 02:35:14;;;;;;;8.77;1.83;;;;;;;;;;4923755;29;20031;-83
2022/01/06 02:37:40;;;;;;;17.75;2.70;;;;;;;;;;4918539;28;20484;-83
2022/01/06 02:40:07;;;;;;;14.45;1.70;;;;;;;;;;4935432;28;20075;-82
2022/01/06 02:42:34;;;;;;;29.55;2.58;;;;;;;;;;4928815;28;20038;-83
2022/01/06 02:45:00;;;;;;;17.42;1.85;;;;;;;;;;4938971;28;20035;-83
2022/01/06 02:47:26;;;;;;;19.55;2.63;;;;;;;;;;4923078;29;20023;-83
2022/01/06 02:49:52;;;;;;;29.33;3.17;;;;;;;;;;4922745;28;20387;-83
2022/01/06 02:52:18;;;;;;;25.55;2.75;;;;;;;;;;4926679;28;20035;-83
2022/01/06 02:54:44;;;;;;;22.70;2.80;;;;;;;;;;4918993;28;20031;-83
2022/01/06 02:57:10;;;;;;;23.40;3.17;;;;;;;;;;4921658;29;20522;-83
2022/01/06 02:59:36;;;;;;;14.57;2.28;;;;;;;;;;4918495;28;20047;-83
2022/01/06 03:02:02;;;;;;;21.98;2.83;;;;;;;;;;4923546;29;20548;-83
2022/01/06 03:04:28;;;;;;;37.15;3.20;;;;;;;;;;4918582;28;20031;-83
2022/01/06 03:06:54;;;;;;;13.40;2.15;;;;;;;;;;4926425;29;20038;-83
2022/01/06 03:09:26;;;;;;;23.02;2.70;;;;;;;;;;4936067;28;20047;-83
2022/01/06 03:11:55;;;;;;;32.63;3.33;;;;;;;;;;4921390;28;20451;-83
2022/01/06 03:14:21;;;;;;;30.20;2.53;;;;;;;;;;4923506;29;20054;-83
2022/01/06 03:16:47;;;;;;;12.98;2.25;;;;;;;;;;4926278;29;20043;-83
2022/01/06 03:19:13;;;;;;;18.52;2.83;;;;;;;;;;4925575;29;20519;-84
2022/01/06 03:21:39;;;;;;;25.67;3.30;;;;;;;;;;4921169;28;20090;-83
2022/01/06 03:24:06;;;;;;;21.42;2.28;;;;;;;;;;4920806;29;20036;-83
2022/01/06 03:26:32;;;;;;;22.42;2.38;;;;;;;;;;4923633;28;20031;-83
2022/01/06 03:28:58;;;;;;;27.33;3.10;;;;;;;;;;4919257;29;20125;-83
2022/01/06 03:31:24;;;;;;;15.70;2.60;;;;;;;;;;4916976;29;20050;-83
2022/01/06 03:33:51;;;;;;;23.40;3.10;;;;;;;;;;4922514;28;20392;-82
2022/01/06 03:36:17;;;;;;;20.58;3.15;;;;;;;;;;4940795;28;20291;-83
2022/01/06 03:38:43;;;;;;;19.67;2.70;;;;;;;;;;4931675;28;19925;-83
2022/01/06 03:41:09;;;;;;;30.25;3.08;;;;;;;;;;4941441;28;20126;-83
2022/01/06 03:43:35;;;;;;;29.33;3.08;;;;;;;;;;4941650;28;20034;-84
2022/01/06 03:46:01;;;;;;;20.67;2.90;;;;;;;;;;4937984;28;20027;-83
2022/01/06 03:48:27;;;;;;;18.52;2.78;;;;;;;;;;4935250;28;20506;-82
2022/01/06 03:50:53;;;;;;;25.88;3.17;;;;;;;;;;4943337;28;20031;-82
2022/01/06 03:53:19;;;;;;;22.00;1.90;;;;;;;;;;4940221;28;20030;-83
2022/01/06 03:55:45;;;;;;;23.23;2.67;;;;;;;;;;4944697;28;20484;-83
2022/01/06 03:58:11;;;;;;;29.55;2.88;;;;;;;;;;4936340;28;20546;-83
2022/01/06 04:00:38;;;;;;;19.23;2.50;;;;;;;;;;4943277;28;20403;-83
2022/01/06 04:03:04;;;;;;;18.15;2.67;;;;;;;;;;4940895;28;20035;-83
2022/01/06 04:05:33;;;;;;;13.40;2.05;;;;;;;;;;4941060;28;20054;-83
2022/01/06 04:08:00;;;;;;;15.68;2.00;;;;;;;;;;4955981;28;20495;-83
2022/01/06 04:10:26;;;;;;;11.15;2.38;;;;;;;;;;4941152;28;20095;-82
2022/01/06 04:12:52;;;;;;;16.42;3.00;;;;;;;;;;4939912;28;20041;-83
2022/01/06 04:15:18;;;;;;;19.85;2.25;;;;;;;;;;4953290;28;20392;-83
2022/01/06 04:17:44;;;;;;;21.20;2.88;;;;;;;;;;4944628;28;20495;-82
2022/01/06 04:20:11;;;;;;;21.65;2.70;;;;;;;;;;4944314;28;20034;-83
2022/01/06 04:22:38;;;;;;;17.17;3.08;;;;;;;;;;4940562;28;20446;-83
2022/01/06 04:25:05;;;;;;;25.17;2.90;;;;;;;;;;4944868;28;20043;-84
2022/01/06 04:27:31;;;;;;;25.30;2.63;;;;;;;;;;4937809;28;20046;-83
2022/01/06 04:29:57;;;;;;;18.30;1.98;;;;;;;;;;4940916;28;20043;-83
2022/01/06 04:32:23;;;;;;;15.48;2.65;;;;;;;;;;4938927;28;20038;-83
2022/01/06 04:34:49;;;;;;;29.30;3.00;;;;;;;;;;4942740;28;20506;-83
2022/01/06 04:37:15;;;;;;;17.85;2.88;;;;;;;;;;4939650;28;20039;-83
2022/01/06 04:39:41;;;;;;;21.55;2.45;;;;;;;;;;4952713;28;20106;-83
2022/01/06 04:42:08;;;;;;;15.32;2.42;;;;;;;;;;4922185;28;20587;-83
2022/01/06 04:44:34;;;;;;;20.30;4.03;;;;;;;;;;4916881;29;20409;-83
2022/01/06 04:47:00;;;;;;;16.23;2.95;;;;;;;;;;4919872;28;20530;-83
2022/01/06 04:49:27;;;;;;;16.52;2.40;;;;;;;;;;4920117;29;20035;-83
2022/01/06 04:51:53;;;;;;;26.33;2.95;;;;;;;;;;4920497;28;20839;-83
2022/01/06 04:54:19;;;;;;;32.08;2.80;;;;;;;;;;4926912;29;20500;-84
2022/01/06 04:56:45;;;;;;;32.75;3.45;;;;;;;;;;4923266;29;20546;-83
2022/01/06 04:59:11;;;;;;;18.50;2.83;;;;;;;;;;4914479;29;20504;-83
2022/01/06 05:01:37;;;;;;;21.48;2.65;;;;;;;;;;4921316;29;20058;-82
2022/01/06 05:04:04;;;;;;;16.98;2.35;;;;;;;;;;4919370;29;20562;-83
2022/01/06 05:06:30;;;;;;;21.90;2.58;;;;;;;;;;4938983;28;20044;-82
2022/01/06 05:08:56;;;;;;;16.23;2.35;;;;;;;;;;4924114;29;20396;-83
2022/01/06 05:11:22;;;;;;;15.63;2.20;;;;;;;;;;4920217;28;20059;-82
2022/01/06 05:13:48;;;;;;;9.27;1.88;;;;;;;;;;4922423;29;20042;-83
2022/01/06 05:16:14;;;;;;;23.90;2.83;;;;;;;;;;4920981;28;20103;-84
2022/01/06 05:18:40;;;;;;;18.95;3.00;;;;;;;;;;4926436;28;20477;-85
2022/01/06 05:21:07;;;;;;;17.85;3.00;;;;;;;;;;4933559;28;20547;-84
2022/01/06 05:23:33;;;;;;;22.13;2.33;;;;;;;;;;4927928;29;20055;-83
2022/01/06 05:25:59;;;;;;;15.90;2.53;;;;;;;;;;4924998;29;20031;-83
2022/01/06 05:28:25;;;;;;;25.13;2.70;;;;;;;;;;4926287;28;20032;-83
2022/01/06 05:30:52;;;;;;;17.88;3.90;;;;;;;;;;4909594;28;20408;-83
2022/01/06 05:33:18;;;;;;;24.05;3.17;;;;;;;;;;4918135;28;20122;-83
2022/01/06 05:35:44;;;;;;;20.63;3.30;;;;;;;;;;4930157;28;20047;-83
2022/01/06 05:38:10;;;;;;;27.80;3.47;;;;;;;;;;4924811;29;20043;-83
2022/01/06 05:40:37;;;;;;;21.67;3.03;;;;;;;;;;4937605;28;20431;-83
2022/01/06 05:43:03;;;;;;;17.80;2.83;;;;;;;;;;4940247;28;20046;-83
2022/01/06 05:45:29;;;;;;;27.55;2.83;;;;;;;;;;4944566;28;20487;-83
2022/01/06 05:47:55;;;;;;;18.45;2.53;;;;;;;;;;4943101;28;20515;-83
2022/01/06 05:50:22;;;;;;;36.13;3.03;;;;;;;;;;4947570;28;20076;-83
2022/01/06 05:52:48;;;;;;;17.58;3.45;;;;;;;;;;4940388;28;20039;-83
2022/01/06 05:55:14;;;;;;;14.77;2.78;;;;;;;;;;4948031;28;20120;-83
2022/01/06 05:57:40;;;;;;;20.02;2.75;;;;;;;;;;4954532;28;20479;-83
2022/01/06 06:00:07;;;;;;;22.55;3.13;;;;;;;;;;4938541;28;20053;-83
2022/01/06 06:02:33;;;;;;;21.75;3.80;;;;;;;;;;4950551;28;20026;-83
2022/01/06 06:04:59;;;;;;;29.30;3.33;;;;;;;;;;4940354;28;20568;-83
2022/01/06 06:07:25;;;;;;;23.15;3.13;;;;;;;;;;4943770;28;20430;-84
2022/01/06 06:09:52;;;;;;;26.73;3.83;;;;;;;;;;4943377;28;20038;-83
2022/01/06 06:12:20;;;;;;;23.13;3.33;;;;;;;;;;4944586;28;20043;-83
2022/01/06 06:14:46;;;;;;;26.08;4.05;;;;;;;;;;4959541;28;20019;-83
2022/01/06 06:17:12;;;;;;;17.42;2.50;;;;;;;;;;4949235;28;20097;-83
2022/01/06 06:19:39;;;;;;;23.23;3.03;;;;;;;;;;4938771;28;20023;-83
2022/01/06 06:22:05;;;;;;;27.17;2.95;;;;;;;;;;4945594;28;20093;-83
2022/01/06 06:24:33;;;;;;;21.35;2.50;;;;;;;;;;4945005;28;20042;-83
2022/01/06 06:26:59;;;;;;;28.15;3.58;;;;;;;;;;4940164;28;20137;-83
2022/01/06 06:29:25;;;;;;;26.65;3.53;;;;;;;;;;4944537;28;20442;-83
2022/01/06 06:31:57;;;;;;;23.25;3.47;;;;;;;;;;4955467;28;20444;-83
2022/01/06 06:34:29;;;;;;;28.38;3.75;;;;;;;;;;4945704;28;20395;-83
2022/01/06 06:36:55;;;;;;;30.83;3.20;;;;;;;;;;4936672;28;20122;-83
2022/01/06 06:39:21;;;;;;;32.15;3.17;;;;;;;;;;4946401;28;20026;-83
2022/01/06 06:41:47;;;;;;;28.05;3.60;;;;;;;;;;4935694;28;20062;-83
2022/01/06 06:44:13;;;;;;;25.40;4.00;;;;;;;;;;4946115;28;20035;-83
2022/01/06 06:46:39;;;;;;;32.80;3.50;;;;;;;;;;4936197;28;20031;-83
2022/01/06 06:49:06;;;;;;;21.13;3.67;;;;;;;;;;4956128;28;20026;-83
2022/01/06 06:51:32;;;;;;;28.48;3.72;;;;;;;;;;4940103;28;20094;-84
2022/01/06 06:54:00;;;;;;;16.23;3.20;;;;;;;;;;4935211;28;20031;-83
2022/01/06 06:56:27;;;;;;;39.03;3.05;;;;;;;;;;4939093;28;20621;-83
2022/01/06 06:58:53;;;;;;;18.63;2.85;;;;;;;;;;4938617;28;20466;-83
2022/01/06 07:01:19;;;;;;;17.08;2.95;;;;;;;;;;4962592;28;20219;-83
2022/01/06 07:03:45;;;;;;;27.33;4.13;;;;;;;;;;4938911;28;20310;-83
2022/01/06 07:06:11;;;;;;;25.15;3.30;;;;;;;;;;4945143;28;20095;-83
2022/01/06 07:08:37;;;;;;;18.33;2.75;;;;;;;;;;4954416;28;20027;-83
2022/01/06 07:11:03;;;;;;;26.58;3.25;;;;;;;;;;4940166;28;20126;-84
2022/01/06 07:13:29;;;;;;;28.42;3.50;;;;;;;;;;4937010;28;20065;-83
2022/01/06 07:15:55;;;;;;;32.42;3.55;;;;;;;;;;4933165;28;20047;-83
2022/01/06 07:18:21;;;;;;;25.00;2.58;;;;;;;;;;4942612;28;20023;-83
2022/01/06 07:20:47;;;;;;;14.70;2.97;;;;;;;;;;4933275;28;20403;-84
2022/01/06 07:23:13;;;;;;;43.13;3.78;;;;;;;;;;4945871;28;20119;-83
2022/01/06 07:25:39;;;;;;;12.88;2.72;;;;;;;;;;4943213;28;20414;-84
2022/01/06 07:28:05;;;;;;;28.70;4.10;;;;;;;;;;4935781;28;20038;-84
2022/01/06 07:30:33;;;;;;;25.27;3.25;;;;;;;;;;4939820;28;20041;-84
2022/01/06 07:33:00;;;;;;;34.33;3.53;;;;;;;;;;4941589;28;20771;-84
2022/01/06 07:35:26;;;;;;;22.17;3.50;;;;;;;;;;4939456;28;20066;-84
2022/01/06 07:37:52;;;;;;;27.63;4.03;;;;;;;;;;4956151;28;20114;-84
2022/01/06 07:40:20;;;;;;;18.13;3.38;;;;;;;;;;4942747;28;20023;-84
2022/01/06 07:42:46;;;;;;;25.35;3.88;;;;;;;;;;4935519;28;20081;-84
2022/01/06 07:45:13;;;;;;;45.17;5.10;;;;;;;;;;4940292;28;20035;-84
2022/01/06 07:47:54;;;;;;;19.95;3.03;;;;;;;;;;4936163;28;20118;-84
2022/01/06 07:50:20;;;;;;;18.15;2.95;;;;;;;;;;4958591;28;20559;-84
2022/01/06 07:52:46;;;;;;;18.00;3.63;;;;;;;;;;4954000;28;20035;-84
2022/01/06 07:55:12;;;;;;;27.00;3.85;;;;;;;;;;4943085;28;20046;-84
2022/01/06 07:57:38;;;;;;;21.67;3.15;;;;;;;;;;4954966;28;20035;-84
2022/01/06 08:00:05;;;;;;;28.15;3.88;;;;;;;;;;4937214;28;20030;-84
2022/01/06 08:02:31;;;;;;;22.90;4.47;;;;;;;;;;4939946;28;20119;-83
2022/01/06 08:04:57;;;;;;;23.10;3.58;;;;;;;;;;4936396;28;20027;-84
2022/01/06 08:07:23;;;;;;;40.45;4.20;;;;;;;;;;4956929;28;20034;-83
2022/01/06 08:09:49;;;;;;;15.27;3.17;;;;;;;;;;4937336;28;20050;-84
2022/01/06 08:12:15;;;;;;;19.17;3.92;;;;;;;;;;4937232;28;20035;-84
2022/01/06 08:14:41;;;;;;;38.22;3.85;;;;;;;;;;4938706;28;20676;-84
2022/01/06 08:17:07;;;;;;;42.08;3.92;;;;;;;;;;4964215;28;20051;-84
2022/01/06 08:19:33;;;;;;;32.63;4.05;;;;;;;;;;4951982;28;20023;-84
2022/01/06 08:21:59;;;;;;;33.20;3.88;;;;;;;;;;4941013;28;20047;-84
2022/01/06 08:24:25;;;;;;;24.48;3.83;;;;;;;;;;4943831;28;20122;-84
2022/01/06 08:26:51;;;;;;;32.40;4.22;;;;;;;;;;4955188;28;20126;-83
2022/01/06 08:29:17;;;;;;;7.65;2.15;;;;;;;;;;4959641;28;20035;-83
2022/01/06 08:31:43;;;;;;;17.67;4.32;;;;;;;;;;4940626;28;20051;-83
2022/01/06 08:34:09;;;;;;;34.92;3.78;;;;;;;;;;4944040;28;20043;-83
2022/01/06 08:36:35;;;;;;;20.08;3.83;;;;;;;;;;4938682;28;20060;-83
2022/01/06 08:39:01;;;;;;;19.33;2.88;;;;;;;;;;4958310;28;20050;-83
2022/01/06 08:41:27;;;;;;;17.98;3.65;;;;;;;;;;4934283;28;20098;-83
2022/01/06 08:43:53;;;;;;;37.20;3.63;;;;;;;;;;4919881;29;20554;-83
2022/01/06 08:46:19;;;;;;;17.13;3.55;;;;;;;;;;4935344;28;20546;-82
2022/01/06 08:48:45;;;;;;;32.55;3.65;;;;;;;;;;4937405;28;20043;-83
2022/01/06 08:51:11;;;;;;;26.00;3.60;;;;;;;;;;4924986;29;20069;-83
2022/01/06 08:53:38;;;;;;;24.02;3.78;;;;;;;;;;4920530;29;20428;-83
2022/01/06 08:56:04;;;;;;;11.45;2.65;;;;;;;;;;4927487;29;20034;-83
2022/01/06 08:58:30;;;;;;;23.77;3.97;;;;;;;;;;4918072;29;20042;-83
2022/01/06 09:00:56;;;;;;;27.42;3.40;;;;;;;;;;4926201;29;20054;-83
2022/01/06 09:03:22;;;;;;;22.40;4.18;;;;;;;;;;4918254;29;20118;-83
2022/01/06 09:05:48;;;;;;;32.28;4.32;;;;;;;;;;4929966;29;20146;-83
2022/01/06 09:08:14;;;;;;;36.20;4.13;;;;;;;;;;4923832;29;20573;-84
2022/01/06 09:10:40;;;;;;;40.60;4.10;;;;;;;;;;4923625;28;20489;-83
2022/01/06 09:13:06;;;;;;;31.65;4.20;;;;;;;;;;4924061;28;20067;-83
2022/01/06 09:15:32;;;;;;;36.08;3.65;;;;;;;;;;4918776;29;20125;-84
2022/01/06 09:17:59;;;;;;;38.13;5.30;;;;;;;;;;4928272;28;20443;-83
2022/01/06 09:20:25;;;;;;;23.15;4.57;;;;;;;;;;4922792;28;20023;-83
2022/01/06 09:22:51;;;;;;;44.75;5.68;;;;;;;;;;4925401;29;20032;-83
2022/01/06 09:25:17;;;;;;;31.83;5.68;;;;;;;;;;4939727;28;20077;-84
2022/01/06 09:27:43;;;;;;;26.05;4.20;;;;;;;;;;4938761;28;20047;-83
2022/01/06 09:30:10;;;;;;;23.90;4.47;;;;;;;;;;4920118;29;20027;-83
2022/01/06 09:32:36;;;;;;;25.50;4.93;;;;;;;;;;4926273;29;20039;-83
2022/01/06 09:35:03;;;;;;;26.83;4.57;;;;;;;;;;4926273;28;20399;-84
2022/01/06 09:37:29;;;;;;;26.50;4.88;;;;;;;;;;4917974;29;20293;-84
2022/01/06 09:39:55;;;;;;;29.02;4.32;;;;;;;;;;4923068;28;20119;-83
2022/01/06 09:42:21;;;;;;;28.00;4.82;;;;;;;;;;4923630;28;20257;-83
2022/01/06 09:44:49;;;;;;;29.30;5.60;;;;;;;;;;4925018;28;20042;-83
2022/01/06 09:47:15;;;;;;;27.63;5.40;;;;;;;;;;4924637;29;20150;-83
2022/01/06 09:49:44;;;;;;;22.38;4.85;;;;;;;;;;4921545;29;20485;-83
2022/01/06 09:52:10;;;;;;;22.88;5.22;;;;;;;;;;4918167;28;20440;-83
2022/01/06 09:54:37;;;;;;;35.85;5.88;;;;;;;;;;4926010;28;20488;-83
2022/01/06 09:57:04;;;;;;;34.60;6.47;;;;;;;;;;4917598;28;20035;-83
2022/01/06 09:59:30;;;;;;;36.85;6.47;;;;;;;;;;4926041;28;20792;-83
2022/01/06 10:01:58;;;;;;;35.10;6.32;;;;;;;;;;4924040;29;20058;-84
2022/01/06 10:04:28;;;;;;;38.58;5.78;;;;;;;;;;4921800;28;20515;-83
2022/01/06 10:06:59;;;;;;;34.40;5.53;;;;;;;;;;4924370;29;20559;-82
2022/01/06 10:09:25;;;;;;;17.15;4.80;;;;;;;;;;4919664;28;20314;-82
2022/01/06 10:11:54;;;;;;;34.03;5.80;;;;;;;;;;4935250;28;20586;-83
2022/01/06 10:14:30;;;;;;;24.27;5.97;;;;;;;;;;4931351;28;20052;-83
2022/01/06 10:16:56;;;;;;;26.60;4.93;;;;;;;;;;4924218;28;20066;-83
2022/01/06 10:19:23;;;;;;;25.98;5.10;;;;;;;;;;4920665;28;20031;-83
2022/01/06 10:21:56;;;;;;;26.10;5.82;;;;;;;;;;4908602;28;20031;-83
2022/01/06 10:24:23;;;;;;;18.17;4.32;;;;;;;;;;4943861;28;20027;-83
2022/01/06 10:26:52;;;;;;;27.10;4.80;;;;;;;;;;4937403;28;20395;-82
2022/01/06 10:29:19;;;;;;;13.85;4.95;;;;;;;;;;4926718;29;20558;-83
2022/01/06 10:31:45;;;;;;;25.83;5.15;;;;;;;;;;4922121;28;20116;-83
2022/01/06 10:34:11;;;;;;;17.67;5.13;;;;;;;;;;4938185;28;20448;-83
2022/01/06 10:36:38;;;;;;;21.35;4.78;;;;;;;;;;4913082;29;20134;-83
2022/01/06 10:39:06;;;;;;;17.20;4.53;;;;;;;;;;4939325;28;20024;-83
2022/01/06 10:41:33;;;;;;;20.38;5.10;;;;;;;;;;4949437;28;20065;-83
2022/01/06 10:44:00;;;;;;;16.50;5.53;;;;;;;;;;4955067;28;20187;-84
2022/01/06 10:46:36;;;;;;;28.40;5.38;;;;;;;;;;4958666;28;20543;-83
2022/01/06 10:49:05;;;;;;;30.92;5.13;;;;;;;;;;4938574;28;20038;-83
2022/01/06 10:51:33;;;;;;;25.17;5.70;;;;;;;;;;4942948;28;20589;-83
2022/01/06 10:53:59;;;;;;;24.55;5.35;;;;;;;;;;4939715;28;20035;-83
2022/01/06 10:56:27;;;;;;;19.02;5.30;;;;;;;;;;4943950;28;20031;-83
2022/01/06 10:58:56;;;;;;;14.35;4.80;;;;;;;;;;4936904;28;20530;-83
2022/01/06 11:01:22;;;;;;;20.42;5.10;;;;;;;;;;4942669;28;20027;-84
2022/01/06 11:03:48;;;;;;;22.40;5.95;;;;;;;;;;4940490;28;20432;-84
2022/01/06 11:06:14;;;;;;;23.10;5.60;;;;;;;;;;4957883;28;20024;-83
2022/01/06 11:08:41;;;;;;;17.35;5.90;;;;;;;;;;4958735;28;20852;-83
2022/01/06 11:13:38;;;;;;;18.30;5.30;;;;;;;;;;4953093;28;20083;-84
2022/01/06 11:16:05;;;;;;;25.48;6.07;;;;;;;;;;4954387;28;20038;-83
2022/01/06 11:18:31;;;;;;;25.35;6.78;;;;;;;;;;4942153;28;20523;-83
2022/01/06 11:21:11;;;;;;;20.60;5.72;;;;;;;;;;4937242;28;20035;-84
2022/01/06 11:23:37;;;;;;;13.30;6.32;;;;;;;;;;4943446;28;20046;-83
2022/01/06 11:26:04;;;;;;;18.02;6.40;;;;;;;;;;4942125;28;20027;-83
2022/01/06 11:28:30;;;;;;;22.55;6.70;;;;;;;;;;4939948;28;20266;-84
2022/01/06 11:30:56;;;;;;;17.77;5.57;;;;;;;;;;4937553;28;20414;-83
2022/01/06 11:33:22;;;;;;;33.22;7.88;;;;;;;;;;4933145;28;20058;-83
2022/01/06 11:35:49;;;;;;;17.35;5.30;;;;;;;;;;4941705;28;20042;-84
2022/01/06 11:38:17;;;;;;;24.70;4.57;;;;;;;;;;4941374;28;20027;-84
2022/01/06 11:40:44;;;;;;;18.15;4.18;;;;;;;;;;4941637;28;20034;-83
2022/01/06 11:43:10;;;;;;;17.70;3.97;;;;;;;;;;4921204;28;20527;-83
2022/01/06 11:45:36;;;;;;;20.05;4.60;;;;;;;;;;4920633;28;20035;-84
2022/01/06 11:48:04;;;;;;;30.17;5.15;;;;;;;;;;4932606;28;20054;-83
2022/01/06 11:50:35;;;;;;;14.88;4.53;;;;;;;;;;4921081;28;20067;-84
2022/01/06 11:53:03;;;;;;;16.52;4.32;;;;;;;;;;4937739;28;20034;-84
2022/01/06 11:55:34;;;;;;;15.18;5.25;;;;;;;;;;4917047;29;20039;-84
2022/01/06 11:58:09;;;;;;;22.63;4.10;;;;;;;;;;4938780;28;20130;-84
2022/01/06 12:00:35;;;;;;;17.67;4.38;;;;;;;;;;4923205;29;20078;-84
2022/01/06 12:03:01;;;;;;;15.85;4.47;;;;;;;;;;4925784;28;20593;-84
2022/01/06 12:05:28;;;;;;;14.48;3.78;;;;;;;;;;4919580;29;20048;-84
2022/01/06 12:07:55;;;;;;;16.05;4.13;;;;;;;;;;4922522;28;20538;-84
2022/01/06 12:10:21;;;;;;;17.95;4.32;;;;;;;;;;4937665;28;20550;-84
2022/01/06 12:12:57;;;;;;;16.17;4.30;;;;;;;;;;4915300;29;20508;-84
2022/01/06 12:15:23;;;;;;;14.70;4.20;;;;;;;;;;4923440;28;20083;-84
2022/01/06 12:17:56;;;;;;;22.35;4.93;;;;;;;;;;4934396;28;20020;-84
2022/01/06 12:20:29;;;;;;;14.10;3.95;;;;;;;;;;4922632;28;20081;-84
2022/01/06 12:22:56;;;;;;;17.73;4.82;;;;;;;;;;4920159;28;20095;-83
2022/01/06 12:25:24;;;;;;;11.73;3.45;;;;;;;;;;4924747;28;20063;-84
2022/01/06 12:27:52;;;;;;;17.95;4.00;;;;;;;;;;4915911;28;20069;-85
2022/01/06 12:30:19;;;;;;;19.10;4.10;;;;;;;;;;4917159;29;20080;-84
2022/01/06 12:32:59;;;;;;;12.48;3.80;;;;;;;;;;4938983;28;20492;-84
2022/01/06 12:35:37;;;;;;;17.70;3.97;;;;;;;;;;4918256;29;20163;-84
2022/01/06 12:38:03;;;;;;;13.07;3.63;;;;;;;;;;4921652;28;20519;-84
2022/01/06 12:40:36;;;;;;;16.92;3.60;;;;;;;;;;4934623;28;20479;-84
2022/01/06 12:43:21;;;;;;;16.55;3.72;;;;;;;;;;4928716;28;20193;-85
2022/01/06 12:46:00;;;;;;;16.80;2.95;;;;;;;;;;4941497;28;20036;-85
2022/01/06 12:48:31;;;;;;;16.23;2.50;;;;;;;;;;4931579;28;20035;-84
2022/01/06 12:50:57;;;;;;;17.35;3.25;;;;;;;;;;4918797;28;20051;-84
2022/01/06 12:53:27;;;;;;;16.02;3.72;;;;;;;;;;4928348;28;20046;-85
2022/01/06 12:55:57;;;;;;;22.40;3.47;;;;;;;;;;4917506;29;20461;-84
2022/01/06 12:58:24;;;;;;;17.45;2.85;;;;;;;;;;4909434;28;20503;-84
2022/01/06 13:00:54;;;;;;;19.30;3.03;;;;;;;;;;4921625;29;20041;-84
2022/01/06 13:03:27;;;;;;;17.20;3.30;;;;;;;;;;4926596;28;20028;-84
2022/01/06 13:05:53;;;;;;;13.32;3.00;;;;;;;;;;4930633;28;20391;-84
2022/01/06 13:08:19;;;;;;;17.58;3.22;;;;;;;;;;4943134;28;20035;-85
2022/01/06 13:10:45;;;;;;;17.55;3.67;;;;;;;;;;4927448;28;20107;-84
2022/01/06 13:13:12;;;;;;;23.10;3.33;;;;;;;;;;4918832;28;20450;-83
2022/01/06 13:15:38;;;;;;;12.98;2.95;;;;;;;;;;4930233;28;20031;-84
2022/01/06 13:18:04;;;;;;;9.48;3.05;;;;;;;;;;4932029;28;20156;-84
2022/01/06 13:20:37;;;;;;;17.75;3.58;;;;;;;;;;4916384;29;20123;-84
2022/01/06 13:23:41;;;;;;;13.77;2.45;;;;;;;;;;4933214;28;20027;-85
2022/01/06 13:26:08;;;;;;;11.70;2.95;;;;;;;;;;4920883;29;20039;-84
2022/01/06 13:28:35;;;;;;;8.10;1.80;;;;;;;;;;4916014;29;20038;-84
2022/01/06 13:31:01;;;;;;;11.52;2.28;;;;;;;;;;4935799;28;20039;-84
2022/01/06 13:33:28;;;;;;;22.83;2.90;;;;;;;;;;4915497;28;20039;-84
2022/01/06 13:36:02;;;;;;;16.73;2.20;;;;;;;;;;4938970;28;20964;-84
2022/01/06 13:38:30;;;;;;;15.85;2.78;;;;;;;;;;4929941;28;20471;-84
2022/01/06 13:41:01;;;;;;;22.15;3.33;;;;;;;;;;4919147;28;20036;-85
2022/01/06 13:43:28;;;;;;;9.90;2.60;;;;;;;;;;4917121;28;20043;-84
2022/01/06 13:45:55;;;;;;;16.45;2.70;;;;;;;;;;4919015;28;20035;-85
2022/01/06 13:51:05;;;;;;;12.90;2.88;;;;;;;;;;4938994;28;20039;-84
2022/01/06 13:53:38;;;;;;;14.95;2.63;;;;;;;;;;4924715;28;20444;-84
2022/01/06 13:56:07;;;;;;;8.85;2.83;;;;;;;;;;4925140;29;20440;-84
2022/01/06 13:58:34;;;;;;;12.98;2.28;;;;;;;;;;4939912;28;20027;-84
2022/01/06 14:01:02;;;;;;;15.55;2.13;;;;;;;;;;4919384;29;20031;-84
2022/01/06 14:03:31;;;;;;;8.70;2.22;;;;;;;;;;4916841;28;20517;-84
2022/01/06 14:05:58;;;;;;;16.55;2.20;;;;;;;;;;4940629;28;20086;-84
2022/01/06 14:08:24;;;;;;;16.52;2.85;;;;;;;;;;4922922;28;20389;-84
2022/01/06 14:10:50;;;;;;;8.40;1.33;;;;;;;;;;4940337;28;20452;-84
2022/01/06 14:13:17;;;;;;;14.15;1.92;;;;;;;;;;4916626;29;20129;-84
2022/01/06 14:15:45;;;;;;;15.27;2.60;;;;;;;;;;4938006;28;20408;-83
2022/01/06 14:18:12;;;;;;;11.43;2.53;;;;;;;;;;4918210;28;20079;-84
2022/01/06 14:20:37;;;;;;;15.38;1.98;;;;;;;;;;4928444;28;20520;-84
2022/01/06 14:23:04;;;;;;;14.02;2.67;;;;;;;;;;4923882;29;20031;-84
2022/01/06 14:25:30;;;;;;;14.15;2.20;;;;;;;;;;4937319;28;20032;-84
2022/01/06 14:27:56;;;;;;;17.88;3.03;;;;;;;;;;4924402;29;20138;-83
2022/01/06 14:30:23;;;;;;;13.63;2.60;;;;;;;;;;4916450;28;20491;-84
2022/01/06 14:32:50;;;;;;;9.07;2.10;;;;;;;;;;4939265;28;20027;-82
2022/01/06 14:35:16;;;;;;;17.02;3.42;;;;;;;;;;4936365;28;20035;-84
2022/01/06 14:37:42;;;;;;;9.50;1.63;;;;;;;;;;4933673;28;20130;-84
2022/01/06 14:40:09;;;;;;;12.60;1.23;;;;;;;;;;4920599;28;20118;-84
2022/01/06 14:42:35;;;;;;;20.23;3.53;;;;;;;;;;4942862;28;20165;-84
2022/01/06 14:45:01;;;;;;;10.88;2.70;;;;;;;;;;4936296;28;20546;-84